sensor_id;sensor_type;location;lat;lon;timestamp;P1;durP1;ratioP1;P2;durP2;ratioP2
76788;SDS011;65740;52.464;13.446;2023-06-19T00:01:18;6.20;;;5.80;;
76788;SDS011;65740;52.464;13.446;2023-06-19T00:03:44;6.03;;;5.70;;
76788;SDS011;65740;52.464;13.446;2023-06-19T00:06:09;6.20;;;5.80;;
76788;SDS011;65740;52.464;13.446;2023-06-19T00:08:37;5.50;;;5.20;;
76788;SDS011;65740;52.464;13.446;2023-06-19T00:11:06;6.03;;;5.63;;
76788;SDS011;65740;52.464;13.446;2023-06-19T00:13:32;6.07;;;5.67;;
76788;SDS011;65740;52.464;13.446;2023-06-19T00:15:58;5.60;;;5.30;;
76788;SDS011;65740;52.464;13.446;2023-06-19T00:18:25;6.40;;;5.90;;
76788;SDS011;65740;52.464;13.446;2023-06-19T00:20:51;5.90;;;5.50;;
76788;SDS011;65740;52.464;13.446;2023-06-19T00:23:19;6.30;;;5.90;;
76788;SDS011;65740;52.464;13.446;2023-06-19T00:25:45;6.23;;;5.83;;
76788;SDS011;65740;52.464;13.446;2023-06-19T00:28:10;5.93;;;5.63;;
76788;SDS011;65740;52.464;13.446;2023-06-19T00:30:39;5.77;;;5.33;;
76788;SDS011;65740;52.464;13.446;2023-06-19T00:33:04;6.13;;;5.73;;
76788;SDS011;65740;52.464;13.446;2023-06-19T00:35:30;5.93;;;5.53;;
76788;SDS011;65740;52.464;13.446;2023-06-19T00:37:56;6.53;;;6.13;;
76788;SDS011;65740;52.464;13.446;2023-06-19T00:40:29;6.00;;;5.60;;
76788;SDS011;65740;52.464;13.446;2023-06-19T00:42:56;5.70;;;5.30;;
76788;SDS011;65740;52.464;13.446;2023-06-19T00:45:22;5.57;;;5.23;;
76788;SDS011;65740;52.464;13.446;2023-06-19T00:47:54;6.10;;;5.70;;
76788;SDS011;65740;52.464;13.446;2023-06-19T00:50:21;5.67;;;5.37;;
76788;SDS011;65740;52.464;13.446;2023-06-19T00:52:48;5.40;;;5.10;;
76788;SDS011;65740;52.464;13.446;2023-06-19T00:55:14;6.30;;;5.90;;
76788;SDS011;65740;52.464;13.446;2023-06-19T00:57:41;6.20;;;5.80;;
76788;SDS011;65740;52.464;13.446;2023-06-19T01:00:07;5.50;;;5.20;;
76788;SDS011;65740;52.464;13.446;2023-06-19T01:02:34;5.47;;;5.17;;
76788;SDS011;65740;52.464;13.446;2023-06-19T01:05:00;5.70;;;5.40;;
76788;SDS011;65740;52.464;13.446;2023-06-19T01:07:31;5.57;;;5.27;;
76788;SDS011;65740;52.464;13.446;2023-06-19T01:10:05;6.10;;;5.80;;
76788;SDS011;65740;52.464;13.446;2023-06-19T01:12:35;6.40;;;5.93;;
76788;SDS011;65740;52.464;13.446;2023-06-19T01:15:04;5.77;;;5.27;;
76788;SDS011;65740;52.464;13.446;2023-06-19T01:17:32;5.83;;;5.43;;
76788;SDS011;65740;52.464;13.446;2023-06-19T01:19:58;5.47;;;5.17;;
76788;SDS011;65740;52.464;13.446;2023-06-19T01:22:30;6.17;;;5.77;;
76788;SDS011;65740;52.464;13.446;2023-06-19T01:24:56;5.33;;;5.03;;
76788;SDS011;65740;52.464;13.446;2023-06-19T01:27:22;5.93;;;5.53;;
76788;SDS011;65740;52.464;13.446;2023-06-19T01:29:50;5.43;;;5.13;;
76788;SDS011;65740;52.464;13.446;2023-06-19T01:32:19;5.53;;;5.23;;
76788;SDS011;65740;52.464;13.446;2023-06-19T01:34:51;5.40;;;5.00;;
76788;SDS011;65740;52.464;13.446;2023-06-19T01:37:19;5.70;;;5.40;;
76788;SDS011;65740;52.464;13.446;2023-06-19T01:39:45;5.77;;;5.40;;
76788;SDS011;65740;52.464;13.446;2023-06-19T01:42:12;5.10;;;4.80;;
76788;SDS011;65740;52.464;13.446;2023-06-19T01:44:39;5.60;;;5.30;;
76788;SDS011;65740;52.464;13.446;2023-06-19T01:47:11;5.67;;;5.37;;
76788;SDS011;65740;52.464;13.446;2023-06-19T01:49:38;5.40;;;5.10;;
76788;SDS011;65740;52.464;13.446;2023-06-19T01:52:04;5.83;;;5.43;;
76788;SDS011;65740;52.464;13.446;2023-06-19T01:54:30;6.07;;;5.67;;
76788;SDS011;65740;52.464;13.446;2023-06-19T01:56:56;5.70;;;5.30;;
76788;SDS011;65740;52.464;13.446;2023-06-19T01:59:22;6.43;;;5.93;;
76788;SDS011;65740;52.464;13.446;2023-06-19T02:01:48;5.00;;;4.70;;
76788;SDS011;65740;52.464;13.446;2023-06-19T02:04:13;5.63;;;5.33;;
76788;SDS011;65740;52.464;13.446;2023-06-19T02:06:39;5.93;;;5.63;;
76788;SDS011;65740;52.464;13.446;2023-06-19T02:09:05;5.10;;;4.80;;
76788;SDS011;65740;52.464;13.446;2023-06-19T02:11:30;5.80;;;5.50;;
76788;SDS011;65740;52.464;13.446;2023-06-19T02:13:56;5.47;;;5.17;;
76788;SDS011;65740;52.464;13.446;2023-06-19T02:16:22;5.27;;;4.97;;
76788;SDS011;65740;52.464;13.446;2023-06-19T02:18:47;5.30;;;5.00;;
76788;SDS011;65740;52.464;13.446;2023-06-19T02:21:13;5.33;;;5.03;;
76788;SDS011;65740;52.464;13.446;2023-06-19T02:23:38;5.60;;;5.20;;
76788;SDS011;65740;52.464;13.446;2023-06-19T02:26:04;5.60;;;5.30;;
76788;SDS011;65740;52.464;13.446;2023-06-19T02:28:30;5.70;;;5.40;;
76788;SDS011;65740;52.464;13.446;2023-06-19T02:30:55;6.17;;;5.80;;
76788;SDS011;65740;52.464;13.446;2023-06-19T02:33:21;5.67;;;5.37;;
76788;SDS011;65740;52.464;13.446;2023-06-19T02:35:46;5.33;;;5.03;;
76788;SDS011;65740;52.464;13.446;2023-06-19T02:38:12;5.37;;;5.03;;
76788;SDS011;65740;52.464;13.446;2023-06-19T02:40:38;5.93;;;5.60;;
76788;SDS011;65740;52.464;13.446;2023-06-19T02:43:04;5.50;;;5.20;;
76788;SDS011;65740;52.464;13.446;2023-06-19T02:45:30;5.47;;;5.17;;
76788;SDS011;65740;52.464;13.446;2023-06-19T02:47:55;5.33;;;5.03;;
76788;SDS011;65740;52.464;13.446;2023-06-19T02:50:21;5.63;;;5.33;;
76788;SDS011;65740;52.464;13.446;2023-06-19T02:52:47;5.70;;;5.40;;
76788;SDS011;65740;52.464;13.446;2023-06-19T02:55:12;5.90;;;5.50;;
76788;SDS011;65740;52.464;13.446;2023-06-19T02:57:38;5.40;;;5.10;;
76788;SDS011;65740;52.464;13.446;2023-06-19T03:00:04;5.40;;;5.10;;
76788;SDS011;65740;52.464;13.446;2023-06-19T03:02:34;6.17;;;5.77;;
76788;SDS011;65740;52.464;13.446;2023-06-19T03:04:59;5.83;;;5.53;;
76788;SDS011;65740;52.464;13.446;2023-06-19T03:07:26;6.17;;;5.77;;
76788;SDS011;65740;52.464;13.446;2023-06-19T03:09:53;6.20;;;5.80;;
76788;SDS011;65740;52.464;13.446;2023-06-19T03:12:19;6.33;;;5.93;;
76788;SDS011;65740;52.464;13.446;2023-06-19T03:14:45;6.03;;;5.73;;
76788;SDS011;65740;52.464;13.446;2023-06-19T03:17:10;6.30;;;5.90;;
76788;SDS011;65740;52.464;13.446;2023-06-19T03:19:37;5.73;;;5.43;;
76788;SDS011;65740;52.464;13.446;2023-06-19T03:22:02;5.60;;;5.30;;
76788;SDS011;65740;52.464;13.446;2023-06-19T03:24:28;6.10;;;5.80;;
76788;SDS011;65740;52.464;13.446;2023-06-19T03:26:54;6.03;;;5.73;;
76788;SDS011;65740;52.464;13.446;2023-06-19T03:29:19;5.90;;;5.60;;
76788;SDS011;65740;52.464;13.446;2023-06-19T03:31:45;6.17;;;5.80;;
76788;SDS011;65740;52.464;13.446;2023-06-19T03:34:11;6.17;;;5.77;;
76788;SDS011;65740;52.464;13.446;2023-06-19T03:36:37;5.50;;;5.20;;
76788;SDS011;65740;52.464;13.446;2023-06-19T03:39:03;5.97;;;5.60;;
76788;SDS011;65740;52.464;13.446;2023-06-19T03:41:29;6.10;;;5.70;;
76788;SDS011;65740;52.464;13.446;2023-06-19T03:43:55;6.00;;;5.70;;
76788;SDS011;65740;52.464;13.446;2023-06-19T03:46:20;6.30;;;6.00;;
76788;SDS011;65740;52.464;13.446;2023-06-19T03:48:46;5.87;;;5.57;;
76788;SDS011;65740;52.464;13.446;2023-06-19T03:51:12;6.33;;;6.03;;
76788;SDS011;65740;52.464;13.446;2023-06-19T03:53:37;6.00;;;5.70;;
76788;SDS011;65740;52.464;13.446;2023-06-19T03:56:03;5.40;;;5.10;;
76788;SDS011;65740;52.464;13.446;2023-06-19T03:58:28;5.80;;;5.50;;
76788;SDS011;65740;52.464;13.446;2023-06-19T04:00:54;6.57;;;6.17;;
76788;SDS011;65740;52.464;13.446;2023-06-19T04:03:20;6.00;;;5.63;;
76788;SDS011;65740;52.464;13.446;2023-06-19T04:05:45;6.47;;;6.10;;
76788;SDS011;65740;52.464;13.446;2023-06-19T04:08:11;6.33;;;6.03;;
76788;SDS011;65740;52.464;13.446;2023-06-19T04:10:37;6.13;;;5.73;;
76788;SDS011;65740;52.464;13.446;2023-06-19T04:13:02;6.03;;;5.73;;
76788;SDS011;65740;52.464;13.446;2023-06-19T04:15:28;6.07;;;5.77;;
76788;SDS011;65740;52.464;13.446;2023-06-19T04:17:57;5.53;;;5.23;;
76788;SDS011;65740;52.464;13.446;2023-06-19T04:20:22;6.17;;;5.77;;
76788;SDS011;65740;52.464;13.446;2023-06-19T04:22:48;6.10;;;5.80;;
76788;SDS011;65740;52.464;13.446;2023-06-19T04:25:13;5.93;;;5.60;;
76788;SDS011;65740;52.464;13.446;2023-06-19T04:27:39;6.10;;;5.80;;
76788;SDS011;65740;52.464;13.446;2023-06-19T04:30:05;5.47;;;5.17;;
76788;SDS011;65740;52.464;13.446;2023-06-19T04:32:31;6.17;;;5.77;;
76788;SDS011;65740;52.464;13.446;2023-06-19T04:34:57;6.07;;;5.77;;
76788;SDS011;65740;52.464;13.446;2023-06-19T04:37:23;5.80;;;5.50;;
76788;SDS011;65740;52.464;13.446;2023-06-19T04:39:49;5.67;;;5.37;;
76788;SDS011;65740;52.464;13.446;2023-06-19T04:42:16;5.87;;;5.57;;
76788;SDS011;65740;52.464;13.446;2023-06-19T04:44:48;6.30;;;5.90;;
76788;SDS011;65740;52.464;13.446;2023-06-19T04:47:16;6.13;;;5.80;;
76788;SDS011;65740;52.464;13.446;2023-06-19T04:49:43;6.00;;;5.70;;
76788;SDS011;65740;52.464;13.446;2023-06-19T04:52:08;6.00;;;5.70;;
76788;SDS011;65740;52.464;13.446;2023-06-19T04:54:34;5.93;;;5.60;;
76788;SDS011;65740;52.464;13.446;2023-06-19T04:57:00;6.10;;;5.70;;
76788;SDS011;65740;52.464;13.446;2023-06-19T04:59:26;6.10;;;5.70;;
76788;SDS011;65740;52.464;13.446;2023-06-19T05:01:52;6.17;;;5.87;;
76788;SDS011;65740;52.464;13.446;2023-06-19T05:04:21;6.23;;;5.93;;
76788;SDS011;65740;52.464;13.446;2023-06-19T05:06:47;5.87;;;5.57;;
76788;SDS011;65740;52.464;13.446;2023-06-19T05:09:16;5.47;;;5.17;;
76788;SDS011;65740;52.464;13.446;2023-06-19T05:11:42;6.20;;;5.80;;
76788;SDS011;65740;52.464;13.446;2023-06-19T05:14:07;5.83;;;5.53;;
76788;SDS011;65740;52.464;13.446;2023-06-19T05:16:33;5.93;;;5.63;;
76788;SDS011;65740;52.464;13.446;2023-06-19T05:18:59;5.80;;;5.50;;
76788;SDS011;65740;52.464;13.446;2023-06-19T05:21:25;6.00;;;5.70;;
76788;SDS011;65740;52.464;13.446;2023-06-19T05:23:51;5.90;;;5.60;;
76788;SDS011;65740;52.464;13.446;2023-06-19T05:26:18;5.73;;;5.43;;
76788;SDS011;65740;52.464;13.446;2023-06-19T05:28:44;5.90;;;5.50;;
76788;SDS011;65740;52.464;13.446;2023-06-19T05:31:10;6.10;;;5.80;;
76788;SDS011;65740;52.464;13.446;2023-06-19T05:33:35;5.83;;;5.53;;
76788;SDS011;65740;52.464;13.446;2023-06-19T05:36:01;5.90;;;5.60;;
76788;SDS011;65740;52.464;13.446;2023-06-19T05:38:27;6.30;;;5.97;;
76788;SDS011;65740;52.464;13.446;2023-06-19T05:40:55;5.87;;;5.57;;
76788;SDS011;65740;52.464;13.446;2023-06-19T05:43:21;5.20;;;4.90;;
76788;SDS011;65740;52.464;13.446;2023-06-19T05:45:47;5.83;;;5.50;;
76788;SDS011;65740;52.464;13.446;2023-06-19T05:48:13;5.60;;;5.30;;
76788;SDS011;65740;52.464;13.446;2023-06-19T05:50:38;5.53;;;5.23;;
76788;SDS011;65740;52.464;13.446;2023-06-19T05:53:04;6.10;;;5.70;;
76788;SDS011;65740;52.464;13.446;2023-06-19T05:55:30;5.77;;;5.47;;
76788;SDS011;65740;52.464;13.446;2023-06-19T05:57:56;5.77;;;5.47;;
76788;SDS011;65740;52.464;13.446;2023-06-19T06:00:21;5.73;;;5.43;;
76788;SDS011;65740;52.464;13.446;2023-06-19T06:02:47;5.37;;;5.07;;
76788;SDS011;65740;52.464;13.446;2023-06-19T06:05:13;6.03;;;5.63;;
76788;SDS011;65740;52.464;13.446;2023-06-19T06:07:39;6.30;;;5.93;;
76788;SDS011;65740;52.464;13.446;2023-06-19T06:10:05;6.07;;;5.77;;
76788;SDS011;65740;52.464;13.446;2023-06-19T06:12:34;6.03;;;5.73;;
76788;SDS011;65740;52.464;13.446;2023-06-19T06:15:00;5.80;;;5.50;;
76788;SDS011;65740;52.464;13.446;2023-06-19T06:17:27;5.60;;;5.30;;
76788;SDS011;65740;52.464;13.446;2023-06-19T06:19:52;5.83;;;5.53;;
76788;SDS011;65740;52.464;13.446;2023-06-19T06:22:18;6.10;;;5.80;;
76788;SDS011;65740;52.464;13.446;2023-06-19T06:24:43;7.07;;;6.67;;
76788;SDS011;65740;52.464;13.446;2023-06-19T06:27:11;7.10;;;6.70;;
76788;SDS011;65740;52.464;13.446;2023-06-19T06:29:37;6.93;;;6.53;;
76788;SDS011;65740;52.464;13.446;2023-06-19T06:32:06;6.20;;;5.87;;
76788;SDS011;65740;52.464;13.446;2023-06-19T06:34:35;6.07;;;5.77;;
76788;SDS011;65740;52.464;13.446;2023-06-19T06:37:01;6.40;;;5.47;;
76788;SDS011;65740;52.464;13.446;2023-06-19T06:39:27;6.17;;;5.77;;
76788;SDS011;65740;52.464;13.446;2023-06-19T06:41:53;9.40;;;8.80;;
76788;SDS011;65740;52.464;13.446;2023-06-19T06:44:18;9.50;;;8.90;;
76788;SDS011;65740;52.464;13.446;2023-06-19T06:46:44;9.77;;;9.17;;
76788;SDS011;65740;52.464;13.446;2023-06-19T06:49:10;11.20;;;10.50;;
76788;SDS011;65740;52.464;13.446;2023-06-19T06:51:36;11.60;;;10.80;;
76788;SDS011;65740;52.464;13.446;2023-06-19T06:54:02;12.27;;;11.27;;
76788;SDS011;65740;52.464;13.446;2023-06-19T06:56:28;11.50;;;10.67;;
76788;SDS011;65740;52.464;13.446;2023-06-19T06:58:54;12.60;;;11.70;;
76788;SDS011;65740;52.464;13.446;2023-06-19T07:01:19;13.17;;;12.27;;
76788;SDS011;65740;52.464;13.446;2023-06-19T07:03:45;14.60;;;13.50;;
76788;SDS011;65740;52.464;13.446;2023-06-19T07:06:11;14.23;;;13.33;;
76788;SDS011;65740;52.464;13.446;2023-06-19T07:08:36;14.67;;;13.47;;
76788;SDS011;65740;52.464;13.446;2023-06-19T07:11:02;15.30;;;14.23;;
76788;SDS011;65740;52.464;13.446;2023-06-19T07:13:28;14.40;;;13.23;;
76788;SDS011;65740;52.464;13.446;2023-06-19T07:15:53;14.53;;;13.63;;
76788;SDS011;65740;52.464;13.446;2023-06-19T07:18:19;15.77;;;14.67;;
76788;SDS011;65740;52.464;13.446;2023-06-19T07:20:44;16.17;;;15.17;;
76788;SDS011;65740;52.464;13.446;2023-06-19T07:23:10;15.73;;;14.63;;
76788;SDS011;65740;52.464;13.446;2023-06-19T07:25:36;16.80;;;15.70;;
76788;SDS011;65740;52.464;13.446;2023-06-19T07:28:02;17.37;;;15.80;;
76788;SDS011;65740;52.464;13.446;2023-06-19T07:30:30;16.27;;;15.07;;
76788;SDS011;65740;52.464;13.446;2023-06-19T07:32:56;16.73;;;15.10;;
76788;SDS011;65740;52.464;13.446;2023-06-19T07:35:21;16.70;;;15.30;;
76788;SDS011;65740;52.464;13.446;2023-06-19T07:37:47;15.70;;;14.70;;
76788;SDS011;65740;52.464;13.446;2023-06-19T07:40:12;16.30;;;15.10;;
76788;SDS011;65740;52.464;13.446;2023-06-19T07:42:38;15.80;;;14.40;;
76788;SDS011;65740;52.464;13.446;2023-06-19T07:45:04;16.57;;;15.47;;
76788;SDS011;65740;52.464;13.446;2023-06-19T07:47:30;15.60;;;14.53;;
76788;SDS011;65740;52.464;13.446;2023-06-19T07:49:56;17.43;;;16.17;;
76788;SDS011;65740;52.464;13.446;2023-06-19T07:52:21;16.50;;;15.30;;
76788;SDS011;65740;52.464;13.446;2023-06-19T07:54:51;16.10;;;15.00;;
76788;SDS011;65740;52.464;13.446;2023-06-19T07:57:18;17.27;;;16.10;;
76788;SDS011;65740;52.464;13.446;2023-06-19T07:59:44;16.10;;;14.90;;
76788;SDS011;65740;52.464;13.446;2023-06-19T08:02:10;18.00;;;16.60;;
76788;SDS011;65740;52.464;13.446;2023-06-19T08:04:36;16.83;;;15.60;;
76788;SDS011;65740;52.464;13.446;2023-06-19T08:07:01;16.27;;;15.10;;
76788;SDS011;65740;52.464;13.446;2023-06-19T08:09:27;17.10;;;15.90;;
76788;SDS011;65740;52.464;13.446;2023-06-19T08:11:53;16.57;;;15.33;;
76788;SDS011;65740;52.464;13.446;2023-06-19T08:14:18;17.37;;;16.07;;
76788;SDS011;65740;52.464;13.446;2023-06-19T08:16:45;16.33;;;14.83;;
76788;SDS011;65740;52.464;13.446;2023-06-19T08:19:10;17.80;;;16.40;;
76788;SDS011;65740;52.464;13.446;2023-06-19T08:21:36;18.30;;;16.63;;
76788;SDS011;65740;52.464;13.446;2023-06-19T08:24:02;17.53;;;15.97;;
76788;SDS011;65740;52.464;13.446;2023-06-19T08:26:27;17.43;;;16.07;;
76788;SDS011;65740;52.464;13.446;2023-06-19T08:28:54;16.67;;;15.57;;
76788;SDS011;65740;52.464;13.446;2023-06-19T08:31:19;18.53;;;17.23;;
76788;SDS011;65740;52.464;13.446;2023-06-19T08:33:47;18.60;;;17.23;;
76788;SDS011;65740;52.464;13.446;2023-06-19T08:36:15;17.83;;;16.63;;
76788;SDS011;65740;52.464;13.446;2023-06-19T08:38:41;18.30;;;17.00;;
76788;SDS011;65740;52.464;13.446;2023-06-19T08:41:06;18.63;;;17.37;;
76788;SDS011;65740;52.464;13.446;2023-06-19T08:43:32;18.17;;;16.80;;
76788;SDS011;65740;52.464;13.446;2023-06-19T08:46:10;16.73;;;15.53;;
76788;SDS011;65740;52.464;13.446;2023-06-19T08:48:40;17.17;;;15.97;;
76788;SDS011;65740;52.464;13.446;2023-06-19T08:51:06;17.77;;;16.33;;
76788;SDS011;65740;52.464;13.446;2023-06-19T08:53:34;17.17;;;15.93;;
76788;SDS011;65740;52.464;13.446;2023-06-19T08:56:04;17.57;;;16.23;;
76788;SDS011;65740;52.464;13.446;2023-06-19T08:58:30;17.63;;;16.33;;
76788;SDS011;65740;52.464;13.446;2023-06-19T09:00:57;18.10;;;16.80;;
76788;SDS011;65740;52.464;13.446;2023-06-19T09:03:24;17.53;;;16.20;;
76788;SDS011;65740;52.464;13.446;2023-06-19T09:05:49;17.30;;;16.20;;
76788;SDS011;65740;52.464;13.446;2023-06-19T09:08:16;18.80;;;17.40;;
76788;SDS011;65740;52.464;13.446;2023-06-19T09:10:42;17.80;;;16.50;;
76788;SDS011;65740;52.464;13.446;2023-06-19T09:13:08;17.13;;;15.93;;
76788;SDS011;65740;52.464;13.446;2023-06-19T09:15:36;16.83;;;15.53;;
76788;SDS011;65740;52.464;13.446;2023-06-19T09:18:06;16.73;;;15.63;;
76788;SDS011;65740;52.464;13.446;2023-06-19T09:20:33;17.53;;;16.33;;
76788;SDS011;65740;52.464;13.446;2023-06-19T09:23:04;17.20;;;16.10;;
76788;SDS011;65740;52.464;13.446;2023-06-19T09:25:30;17.27;;;16.00;;
76788;SDS011;65740;52.464;13.446;2023-06-19T09:27:56;16.63;;;15.43;;
76788;SDS011;65740;52.464;13.446;2023-06-19T09:30:22;17.50;;;16.13;;
76788;SDS011;65740;52.464;13.446;2023-06-19T09:32:48;18.50;;;17.03;;
76788;SDS011;65740;52.464;13.446;2023-06-19T09:35:14;17.17;;;16.03;;
76788;SDS011;65740;52.464;13.446;2023-06-19T09:37:40;18.67;;;17.10;;
76788;SDS011;65740;52.464;13.446;2023-06-19T09:40:07;18.07;;;16.57;;
76788;SDS011;65740;52.464;13.446;2023-06-19T09:42:37;18.10;;;16.90;;
76788;SDS011;65740;52.464;13.446;2023-06-19T09:45:08;17.20;;;15.70;;
76788;SDS011;65740;52.464;13.446;2023-06-19T09:50:03;17.97;;;16.60;;
76788;SDS011;65740;52.464;13.446;2023-06-19T09:52:31;18.67;;;17.17;;
76788;SDS011;65740;52.464;13.446;2023-06-19T09:54:57;17.60;;;16.30;;
76788;SDS011;65740;52.464;13.446;2023-06-19T09:57:24;17.10;;;15.70;;
76788;SDS011;65740;52.464;13.446;2023-06-19T09:59:55;18.80;;;17.03;;
76788;SDS011;65740;52.464;13.446;2023-06-19T10:02:22;18.40;;;17.03;;
76788;SDS011;65740;52.464;13.446;2023-06-19T10:04:51;17.77;;;16.40;;
76788;SDS011;65740;52.464;13.446;2023-06-19T10:07:22;18.70;;;17.10;;
76788;SDS011;65740;52.464;13.446;2023-06-19T10:09:56;18.03;;;16.73;;
76788;SDS011;65740;52.464;13.446;2023-06-19T10:12:22;18.40;;;17.10;;
76788;SDS011;65740;52.464;13.446;2023-06-19T10:14:58;18.40;;;16.80;;
76788;SDS011;65740;52.464;13.446;2023-06-19T10:17:35;17.97;;;16.63;;
76788;SDS011;65740;52.464;13.446;2023-06-19T10:20:02;19.03;;;17.63;;
76788;SDS011;65740;52.464;13.446;2023-06-19T10:22:31;17.97;;;16.77;;
76788;SDS011;65740;52.464;13.446;2023-06-19T10:24:57;18.07;;;16.77;;
76788;SDS011;65740;52.464;13.446;2023-06-19T10:27:24;18.80;;;17.40;;
76788;SDS011;65740;52.464;13.446;2023-06-19T10:29:53;18.07;;;16.60;;
76788;SDS011;65740;52.464;13.446;2023-06-19T10:32:20;18.63;;;17.13;;
76788;SDS011;65740;52.464;13.446;2023-06-19T10:34:46;18.60;;;17.30;;
76788;SDS011;65740;52.464;13.446;2023-06-19T10:37:14;18.27;;;16.97;;
76788;SDS011;65740;52.464;13.446;2023-06-19T10:39:40;19.80;;;18.40;;
76788;SDS011;65740;52.464;13.446;2023-06-19T10:42:06;18.47;;;17.17;;
76788;SDS011;65740;52.464;13.446;2023-06-19T10:44:33;17.93;;;16.60;;
76788;SDS011;65740;52.464;13.446;2023-06-19T10:47:00;18.77;;;17.37;;
76788;SDS011;65740;52.464;13.446;2023-06-19T10:49:26;19.03;;;17.63;;
76788;SDS011;65740;52.464;13.446;2023-06-19T10:51:52;18.53;;;17.23;;
76788;SDS011;65740;52.464;13.446;2023-06-19T10:54:23;18.60;;;17.00;;
76788;SDS011;65740;52.464;13.446;2023-06-19T10:56:50;17.97;;;16.77;;
76788;SDS011;65740;52.464;13.446;2023-06-19T10:59:16;19.00;;;17.67;;
76788;SDS011;65740;52.464;13.446;2023-06-19T11:01:46;19.30;;;17.90;;
76788;SDS011;65740;52.464;13.446;2023-06-19T11:04:14;18.67;;;17.27;;
76788;SDS011;65740;52.464;13.446;2023-06-19T11:06:41;20.30;;;18.90;;
76788;SDS011;65740;52.464;13.446;2023-06-19T11:09:09;20.63;;;19.00;;
76788;SDS011;65740;52.464;13.446;2023-06-19T11:11:42;21.20;;;19.70;;
76788;SDS011;65740;52.464;13.446;2023-06-19T11:14:09;20.50;;;19.00;;
76788;SDS011;65740;52.464;13.446;2023-06-19T11:16:38;20.70;;;19.23;;
76788;SDS011;65740;52.464;13.446;2023-06-19T11:19:07;20.53;;;19.03;;
76788;SDS011;65740;52.464;13.446;2023-06-19T11:21:35;21.27;;;19.40;;
76788;SDS011;65740;52.464;13.446;2023-06-19T11:24:10;22.70;;;20.70;;
76788;SDS011;65740;52.464;13.446;2023-06-19T11:26:38;23.77;;;21.87;;
76788;SDS011;65740;52.464;13.446;2023-06-19T11:29:23;25.37;;;23.07;;
76788;SDS011;65740;52.464;13.446;2023-06-19T11:34:34;25.70;;;23.50;;
76788;SDS011;65740;52.464;13.446;2023-06-19T11:37:02;26.23;;;23.80;;
76788;SDS011;65740;52.464;13.446;2023-06-19T11:39:46;25.30;;;22.93;;
76788;SDS011;65740;52.464;13.446;2023-06-19T11:42:13;27.80;;;25.20;;
76788;SDS011;65740;52.464;13.446;2023-06-19T11:44:55;26.10;;;23.87;;
76788;SDS011;65740;52.464;13.446;2023-06-19T11:47:22;26.87;;;24.33;;
76788;SDS011;65740;52.464;13.446;2023-06-19T11:49:48;27.57;;;25.23;;
76788;SDS011;65740;52.464;13.446;2023-06-19T11:52:15;25.50;;;23.50;;
76788;SDS011;65740;52.464;13.446;2023-06-19T11:54:41;27.13;;;23.83;;
76788;SDS011;65740;52.464;13.446;2023-06-19T11:57:08;26.13;;;23.93;;
76788;SDS011;65740;52.464;13.446;2023-06-19T11:59:37;27.13;;;24.93;;
76788;SDS011;65740;52.464;13.446;2023-06-19T12:02:06;26.13;;;24.07;;
76788;SDS011;65740;52.464;13.446;2023-06-19T12:04:32;26.33;;;24.20;;
76788;SDS011;65740;52.464;13.446;2023-06-19T12:06:58;23.77;;;21.87;;
76788;SDS011;65740;52.464;13.446;2023-06-19T12:09:24;24.57;;;22.07;;
76788;SDS011;65740;52.464;13.446;2023-06-19T12:11:50;23.30;;;21.10;;
76788;SDS011;65740;52.464;13.446;2023-06-19T12:14:23;22.60;;;20.70;;
76788;SDS011;65740;52.464;13.446;2023-06-19T12:16:49;22.20;;;20.50;;
76788;SDS011;65740;52.464;13.446;2023-06-19T12:19:15;22.00;;;20.40;;
76788;SDS011;65740;52.464;13.446;2023-06-19T12:21:41;23.27;;;21.37;;
76788;SDS011;65740;52.464;13.446;2023-06-19T12:24:07;21.20;;;19.70;;
76788;SDS011;65740;52.464;13.446;2023-06-19T12:26:36;20.30;;;18.67;;
76788;SDS011;65740;52.464;13.446;2023-06-19T12:29:02;20.13;;;18.60;;
76788;SDS011;65740;52.464;13.446;2023-06-19T12:31:29;19.97;;;18.43;;
76788;SDS011;65740;52.464;13.446;2023-06-19T12:33:56;20.50;;;19.03;;
76788;SDS011;65740;52.464;13.446;2023-06-19T12:36:21;19.63;;;18.23;;
76788;SDS011;65740;52.464;13.446;2023-06-19T12:38:47;19.47;;;18.03;;
76788;SDS011;65740;52.464;13.446;2023-06-19T12:41:14;20.20;;;18.70;;
76788;SDS011;65740;52.464;13.446;2023-06-19T12:43:40;19.97;;;18.27;;
76788;SDS011;65740;52.464;13.446;2023-06-19T12:46:06;18.60;;;17.30;;
76788;SDS011;65740;52.464;13.446;2023-06-19T12:48:32;19.47;;;18.07;;
76788;SDS011;65740;52.464;13.446;2023-06-19T12:50:58;18.90;;;17.47;;
76788;SDS011;65740;52.464;13.446;2023-06-19T12:53:23;19.80;;;18.40;;
76788;SDS011;65740;52.464;13.446;2023-06-19T12:55:53;19.80;;;18.07;;
76788;SDS011;65740;52.464;13.446;2023-06-19T12:58:20;18.70;;;17.30;;
76788;SDS011;65740;52.464;13.446;2023-06-19T13:00:46;19.27;;;17.73;;
76788;SDS011;65740;52.464;13.446;2023-06-19T13:03:11;18.80;;;17.40;;
76788;SDS011;65740;52.464;13.446;2023-06-19T13:05:37;18.30;;;16.97;;
76788;SDS011;65740;52.464;13.446;2023-06-19T13:08:02;20.67;;;18.83;;
76788;SDS011;65740;52.464;13.446;2023-06-19T13:10:28;17.70;;;16.40;;
76788;SDS011;65740;52.464;13.446;2023-06-19T13:12:54;18.30;;;16.83;;
76788;SDS011;65740;52.464;13.446;2023-06-19T13:15:19;19.73;;;17.90;;
76788;SDS011;65740;52.464;13.446;2023-06-19T13:17:45;18.60;;;17.20;;
76788;SDS011;65740;52.464;13.446;2023-06-19T13:20:11;18.67;;;17.17;;
76788;SDS011;65740;52.464;13.446;2023-06-19T13:22:37;19.10;;;17.67;;
76788;SDS011;65740;52.464;13.446;2023-06-19T13:25:02;20.27;;;18.67;;
76788;SDS011;65740;52.464;13.446;2023-06-19T13:27:28;19.57;;;18.03;;
76788;SDS011;65740;52.464;13.446;2023-06-19T13:29:54;19.50;;;17.80;;
76788;SDS011;65740;52.464;13.446;2023-06-19T13:32:20;20.57;;;18.90;;
76788;SDS011;65740;52.464;13.446;2023-06-19T13:34:46;21.60;;;19.67;;
76788;SDS011;65740;52.464;13.446;2023-06-19T13:37:11;20.20;;;18.70;;
76788;SDS011;65740;52.464;13.446;2023-06-19T13:39:37;20.30;;;18.50;;
76788;SDS011;65740;52.464;13.446;2023-06-19T13:42:04;20.13;;;18.83;;
76788;SDS011;65740;52.464;13.446;2023-06-19T13:44:30;20.67;;;19.10;;
76788;SDS011;65740;52.464;13.446;2023-06-19T13:46:56;18.73;;;17.43;;
76788;SDS011;65740;52.464;13.446;2023-06-19T13:49:22;20.80;;;19.30;;
76788;SDS011;65740;52.464;13.446;2023-06-19T13:51:47;20.07;;;18.67;;
76788;SDS011;65740;52.464;13.446;2023-06-19T13:54:13;21.00;;;19.50;;
76788;SDS011;65740;52.464;13.446;2023-06-19T13:56:39;21.30;;;19.50;;
76788;SDS011;65740;52.464;13.446;2023-06-19T13:59:05;19.77;;;18.37;;
76788;SDS011;65740;52.464;13.446;2023-06-19T14:01:31;21.90;;;20.23;;
76788;SDS011;65740;52.464;13.446;2023-06-19T14:03:57;21.60;;;20.00;;
76788;SDS011;65740;52.464;13.446;2023-06-19T14:06:26;21.20;;;19.63;;
76788;SDS011;65740;52.464;13.446;2023-06-19T14:08:51;21.90;;;20.30;;
76788;SDS011;65740;52.464;13.446;2023-06-19T14:11:18;21.80;;;20.07;;
76788;SDS011;65740;52.464;13.446;2023-06-19T14:13:44;20.77;;;19.47;;
76788;SDS011;65740;52.464;13.446;2023-06-19T14:16:10;19.20;;;17.80;;
76788;SDS011;65740;52.464;13.446;2023-06-19T14:18:35;17.83;;;16.63;;
76788;SDS011;65740;52.464;13.446;2023-06-19T14:21:04;20.57;;;18.97;;
76788;SDS011;65740;52.464;13.446;2023-06-19T14:23:30;20.23;;;18.80;;